Time;durP1;ratioP1;P1;durP2;ratioP2;P2;SDS_P1;SDS_P2;PMS_P1;PMS_P2;Temp;Humidity;BMP_temperature;BMP_pressure;BME280_temperature;BME280_humidity;BME280_pressure;Samples;Min_cycle;Max_cycle;Signal;HPM_P1;HPM_P2
2021/04/15 00:02:22;;;;;;;5.50;1.38;;;;;;;;;;5020469;28;20045;-57
2021/04/15 00:04:51;;;;;;;7.97;1.60;;;;;;;;;;5024834;28;20068;-55
2021/04/15 00:07:17;;;;;;;4.82;1.65;;;;;;;;;;5012386;28;20034;-56
2021/04/15 00:09:43;;;;;;;3.83;1.27;;;;;;;;;;5039923;28;20042;-55
2021/04/15 00:12:10;;;;;;;7.13;1.42;;;;;;;;;;5035213;28;20052;-57
2021/04/15 00:14:36;;;;;;;5.28;1.42;;;;;;;;;;5012948;28;20064;-58
2021/04/15 00:17:02;;;;;;;7.10;1.55;;;;;;;;;;5019712;28;20115;-59
2021/04/15 00:19:29;;;;;;;4.68;1.23;;;;;;;;;;5022445;28;20046;-56
2021/04/15 00:21:56;;;;;;;10.75;1.13;;;;;;;;;;5011460;28;20048;-57
2021/04/15 00:24:22;;;;;;;5.05;1.00;;;;;;;;;;5022912;28;20057;-55
2021/04/15 00:26:50;;;;;;;3.30;1.17;;;;;;;;;;5022805;28;20065;-59
2021/04/15 00:29:17;;;;;;;3.45;0.90;;;;;;;;;;5019337;28;20045;-55
2021/04/15 00:31:44;;;;;;;5.18;1.20;;;;;;;;;;5022329;28;20069;-58
2021/04/15 00:34:10;;;;;;;4.60;1.20;;;;;;;;;;5023804;28;20058;-52
2021/04/15 00:36:35;;;;;;;2.25;0.77;;;;;;;;;;5023524;28;20054;-55
2021/04/15 00:39:03;;;;;;;3.20;0.70;;;;;;;;;;5030601;28;20044;-56
2021/04/15 00:41:31;;;;;;;1.50;0.60;;;;;;;;;;5042167;28;20051;-50
2021/04/15 00:43:57;;;;;;;2.08;0.77;;;;;;;;;;5028184;28;20069;-51
2021/04/15 00:46:41;;;;;;;3.17;0.77;;;;;;;;;;5019911;28;20050;-54
2021/04/15 00:49:07;;;;;;;4.75;0.90;;;;;;;;;;5009452;28;20096;-59
2021/04/15 00:51:36;;;;;;;3.83;0.98;;;;;;;;;;5022592;28;20048;-52
2021/04/15 00:54:05;;;;;;;2.22;0.70;;;;;;;;;;5019574;28;20037;-54
2021/04/15 00:56:31;;;;;;;1.38;0.60;;;;;;;;;;5020188;28;20116;-51
2021/04/15 00:58:58;;;;;;;0.70;0.45;;;;;;;;;;5019285;28;20045;-55
2021/04/15 01:01:25;;;;;;;2.90;0.60;;;;;;;;;;5022722;28;20045;-56
2021/04/15 01:03:50;;;;;;;0.95;0.50;;;;;;;;;;5016351;28;20038;-56
2021/04/15 01:06:17;;;;;;;2.40;0.52;;;;;;;;;;5021716;28;20060;-54
2021/04/15 01:08:43;;;;;;;2.65;0.60;;;;;;;;;;5035854;28;20037;-51
2021/04/15 01:11:13;;;;;;;0.85;0.45;;;;;;;;;;5021672;28;20080;-52
2021/04/15 01:13:46;;;;;;;2.53;0.60;;;;;;;;;;5022071;28;20038;-55
2021/04/15 01:16:17;;;;;;;0.52;0.25;;;;;;;;;;5017653;28;20123;-55
2021/04/15 01:18:45;;;;;;;1.20;0.55;;;;;;;;;;5022120;28;20049;-57
2021/04/15 01:21:22;;;;;;;1.23;0.50;;;;;;;;;;5020336;28;20041;-55
2021/04/15 01:23:51;;;;;;;0.93;0.55;;;;;;;;;;5022052;28;20046;-54
2021/04/15 01:26:36;;;;;;;0.38;0.38;;;;;;;;;;5034699;28;20049;-53
2021/04/15 01:29:06;;;;;;;1.08;0.50;;;;;;;;;;5045446;28;20056;-53
2021/04/15 01:31:47;;;;;;;1.23;0.60;;;;;;;;;;5022400;28;20056;-59
2021/04/15 01:34:16;;;;;;;2.05;0.75;;;;;;;;;;5018767;28;20046;-57
2021/04/15 01:36:45;;;;;;;2.25;0.65;;;;;;;;;;5016752;28;20061;-52
2021/04/15 01:39:16;;;;;;;0.77;0.50;;;;;;;;;;5021242;28;20041;-57
2021/04/15 01:41:45;;;;;;;1.63;0.68;;;;;;;;;;5017727;28;20091;-57
2021/04/15 01:44:15;;;;;;;2.72;0.60;;;;;;;;;;5022297;28;20062;-57
2021/04/15 01:46:42;;;;;;;1.40;0.80;;;;;;;;;;5018304;28;20056;-58
2021/04/15 01:49:09;;;;;;;3.40;0.80;;;;;;;;;;5024125;28;20052;-56
2021/04/15 01:51:39;;;;;;;3.88;0.93;;;;;;;;;;5019710;28;20038;-57
2021/04/15 01:54:07;;;;;;;1.40;0.90;;;;;;;;;;5029114;28;20039;-53
2021/04/15 01:56:35;;;;;;;3.30;1.10;;;;;;;;;;5035438;28;20049;-55
2021/04/15 01:59:03;;;;;;;3.78;1.35;;;;;;;;;;5039464;28;20048;-57
2021/04/15 02:01:34;;;;;;;4.35;0.88;;;;;;;;;;5027889;28;20061;-52
2021/04/15 02:04:02;;;;;;;5.68;1.13;;;;;;;;;;5019293;28;20507;-54
2021/04/15 02:06:30;;;;;;;2.80;1.30;;;;;;;;;;5016150;28;20057;-49
2021/04/15 02:08:57;;;;;;;5.20;1.40;;;;;;;;;;5022451;28;20062;-53
2021/04/15 02:11:26;;;;;;;6.30;1.13;;;;;;;;;;5021112;28;20049;-55
2021/04/15 02:13:53;;;;;;;3.30;1.10;;;;;;;;;;5024824;28;20041;-55
2021/04/15 02:16:20;;;;;;;3.42;1.15;;;;;;;;;;5023978;28;20038;-56
2021/04/15 02:18:50;;;;;;;5.60;1.13;;;;;;;;;;5020004;28;20042;-57
2021/04/15 02:21:20;;;;;;;5.53;1.40;;;;;;;;;;5024461;28;20041;-56
2021/04/15 02:23:50;;;;;;;3.92;1.20;;;;;;;;;;5020856;28;20041;-54
2021/04/15 02:26:18;;;;;;;5.47;1.10;;;;;;;;;;5023848;28;20037;-50
2021/04/15 02:28:46;;;;;;;2.10;0.95;;;;;;;;;;5019202;28;20065;-56
2021/04/15 02:31:14;;;;;;;2.50;1.00;;;;;;;;;;5024106;28;20115;-49
2021/04/15 02:33:43;;;;;;;3.25;1.27;;;;;;;;;;5020713;28;20034;-52
2021/04/15 02:36:11;;;;;;;5.32;1.17;;;;;;;;;;5022687;28;20045;-57
2021/04/15 02:38:41;;;;;;;3.25;1.10;;;;;;;;;;5032413;28;20048;-51
2021/04/15 02:41:09;;;;;;;2.55;1.17;;;;;;;;;;5043574;28;20049;-55
2021/04/15 02:43:39;;;;;;;7.47;1.40;;;;;;;;;;5030723;28;20045;-55
2021/04/15 02:46:08;;;;;;;3.20;1.00;;;;;;;;;;5024288;28;20056;-51
2021/04/15 02:48:35;;;;;;;3.53;1.10;;;;;;;;;;5020281;28;20034;-50
2021/04/15 02:51:04;;;;;;;3.03;1.17;;;;;;;;;;5025395;28;20095;-56
2021/04/15 02:53:37;;;;;;;5.63;1.13;;;;;;;;;;5028710;28;20030;-54
2021/04/15 02:56:05;;;;;;;4.35;1.05;;;;;;;;;;5044727;28;20093;-55
2021/04/15 02:58:33;;;;;;;5.38;1.48;;;;;;;;;;5036606;28;20053;-55
2021/04/15 03:01:01;;;;;;;5.87;1.30;;;;;;;;;;5023298;28;20050;-57
2021/04/15 03:03:29;;;;;;;5.68;1.60;;;;;;;;;;5020345;28;20270;-58
2021/04/15 03:05:58;;;;;;;5.65;1.52;;;;;;;;;;5021879;28;20065;-50
2021/04/15 03:08:28;;;;;;;2.50;1.40;;;;;;;;;;5021995;28;20049;-57
2021/04/15 03:11:01;;;;;;;4.63;1.38;;;;;;;;;;5022654;28;20049;-59
2021/04/15 03:13:30;;;;;;;3.67;1.30;;;;;;;;;;5030677;28;20046;-55
2021/04/15 03:15:59;;;;;;;9.88;1.38;;;;;;;;;;5019666;28;20042;-58
2021/04/15 03:18:24;;;;;;;;;;;;;;;;;;5024273;28;20038;-55
2021/04/15 03:20:53;;;;;;;3.72;1.08;;;;;;;;;;5017014;28;19917;-56
2021/04/15 03:23:26;;;;;;;6.20;1.40;;;;;;;;;;5005827;28;20075;-55
2021/04/15 03:25:54;;;;;;;3.35;1.10;;;;;;;;;;5034272;28;20081;-57
2021/04/15 03:28:24;;;;;;;4.70;1.30;;;;;;;;;;5041149;28;20052;-57
2021/04/15 03:30:52;;;;;;;4.32;1.45;;;;;;;;;;5026757;28;20026;-55
2021/04/15 03:33:20;;;;;;;3.25;1.30;;;;;;;;;;5037287;28;20129;-54
2021/04/15 03:35:49;;;;;;;6.25;1.48;;;;;;;;;;5018110;28;20041;-54
2021/04/15 03:38:17;;;;;;;3.50;1.20;;;;;;;;;;5020854;28;20037;-50
2021/04/15 03:40:46;;;;;;;3.10;1.33;;;;;;;;;;5017854;28;20045;-57
2021/04/15 03:43:16;;;;;;;2.60;1.30;;;;;;;;;;5022971;28;20088;-54
2021/04/15 03:45:44;;;;;;;4.30;1.50;;;;;;;;;;5021880;28;20049;-53
2021/04/15 03:48:11;;;;;;;3.47;1.33;;;;;;;;;;5022286;28;20038;-55
2021/04/15 03:50:47;;;;;;;7.53;1.52;;;;;;;;;;5018659;28;20056;-54
2021/04/15 03:53:15;;;;;;;5.60;1.40;;;;;;;;;;5021501;28;20041;-51
2021/04/15 03:55:42;;;;;;;3.08;1.30;;;;;;;;;;5021387;28;20041;-55
2021/04/15 03:58:10;;;;;;;5.47;1.50;;;;;;;;;;5022440;28;20122;-50
2021/04/15 04:00:39;;;;;;;3.50;1.40;;;;;;;;;;5020651;28;20045;-54
2021/04/15 04:03:08;;;;;;;3.15;1.15;;;;;;;;;;5041811;28;20052;-54
2021/04/15 04:05:38;;;;;;;5.38;1.38;;;;;;;;;;5039525;28;20045;-57
2021/04/15 04:08:08;;;;;;;3.17;1.38;;;;;;;;;;5023257;28;20106;-51
2021/04/15 04:10:36;;;;;;;4.45;1.38;;;;;;;;;;5022301;28;20041;-55
2021/04/15 04:13:09;;;;;;;5.95;1.65;;;;;;;;;;5038051;28;20483;-54
2021/04/15 04:15:39;;;;;;;3.97;1.15;;;;;;;;;;5043303;28;20059;-53
2021/04/15 04:18:09;;;;;;;2.05;1.17;;;;;;;;;;5041803;28;20053;-50
2021/04/15 04:20:36;;;;;;;3.65;1.30;;;;;;;;;;5043548;28;20164;-57
2021/04/15 04:23:09;;;;;;;2.63;1.27;;;;;;;;;;5022290;28;20041;-54
2021/04/15 04:25:37;;;;;;;3.15;1.27;;;;;;;;;;5022068;28;20042;-57
2021/04/15 04:28:08;;;;;;;2.78;1.45;;;;;;;;;;5028543;28;20053;-54
2021/04/15 04:30:35;;;;;;;4.22;1.17;;;;;;;;;;5022039;28;20057;-55
2021/04/15 04:33:04;;;;;;;3.28;1.30;;;;;;;;;;5029912;28;20062;-55
2021/04/15 04:35:33;;;;;;;3.17;1.15;;;;;;;;;;5042237;28;20045;-54
2021/04/15 04:38:02;;;;;;;4.63;1.20;;;;;;;;;;5029387;28;20042;-58
2021/04/15 04:40:28;;;;;;;;;;;;;;;;;;5021114;28;20074;-57
2021/04/15 04:42:55;;;;;;;3.00;1.20;;;;;;;;;;5017279;28;19929;-53
2021/04/15 04:45:23;;;;;;;4.47;1.40;;;;;;;;;;5021901;28;20515;-54
2021/04/15 04:47:51;;;;;;;2.67;1.15;;;;;;;;;;5022033;28;20049;-58
2021/04/15 04:50:24;;;;;;;1.77;1.00;;;;;;;;;;5042756;28;20138;-56
2021/04/15 04:52:56;;;;;;;5.30;1.60;;;;;;;;;;5036039;28;20030;-58
2021/04/15 04:55:26;;;;;;;3.33;1.20;;;;;;;;;;5038360;28;20049;-55
2021/04/15 04:57:52;;;;;;;3.95;1.30;;;;;;;;;;5035940;28;20037;-54
2021/04/15 05:00:20;;;;;;;4.40;1.38;;;;;;;;;;5020630;28;20114;-56
2021/04/15 05:02:50;;;;;;;4.10;1.50;;;;;;;;;;5020620;28;20156;-55
2021/04/15 05:05:19;;;;;;;3.33;1.35;;;;;;;;;;5019334;28;20037;-57
2021/04/15 05:07:46;;;;;;;2.88;1.38;;;;;;;;;;5019975;28;20026;-53
2021/04/15 05:10:17;;;;;;;2.75;1.30;;;;;;;;;;5034794;28;20052;-55
2021/04/15 05:12:43;;;;;;;4.28;1.38;;;;;;;;;;5042789;28;20045;-54
2021/04/15 05:15:09;;;;;;;6.10;1.58;;;;;;;;;;5021922;28;20045;-54
2021/04/15 05:17:37;;;;;;;4.22;1.33;;;;;;;;;;5022931;28;20118;-55
2021/04/15 05:20:05;;;;;;;5.35;1.58;;;;;;;;;;5030214;28;20099;-57
2021/04/15 05:22:36;;;;;;;4.78;1.63;;;;;;;;;;5052374;28;20048;-58
2021/04/15 05:25:03;;;;;;;4.43;1.40;;;;;;;;;;5025887;28;20037;-54
2021/04/15 05:27:32;;;;;;;9.60;1.30;;;;;;;;;;5030859;28;20056;-56
2021/04/15 05:30:16;;;;;;;3.97;1.20;;;;;;;;;;5027230;28;20037;-63
2021/04/15 05:32:43;;;;;;;3.90;1.27;;;;;;;;;;5027173;28;20038;-60
2021/04/15 05:35:10;;;;;;;6.95;1.30;;;;;;;;;;5025785;28;20127;-58
2021/04/15 05:37:36;;;;;;;2.08;1.10;;;;;;;;;;5029731;28;20045;-56
2021/04/15 05:40:03;;;;;;;3.03;1.30;;;;;;;;;;5027878;28;20126;-58
2021/04/15 05:42:33;;;;;;;2.78;1.23;;;;;;;;;;5027175;28;20171;-49
2021/04/15 05:45:01;;;;;;;3.17;1.40;;;;;;;;;;5030529;28;20053;-54
2021/04/15 05:47:31;;;;;;;2.60;1.30;;;;;;;;;;5030331;28;20041;-58
2021/04/15 05:50:00;;;;;;;8.98;2.85;;;;;;;;;;5026174;28;20058;-57
2021/04/15 05:52:28;;;;;;;6.38;2.20;;;;;;;;;;5029269;28;20119;-59
2021/04/15 05:55:02;;;;;;;4.20;1.50;;;;;;;;;;5029012;28;20052;-55
2021/04/15 05:57:31;;;;;;;6.05;1.70;;;;;;;;;;5029929;28;20045;-53
2021/04/15 05:59:57;;;;;;;;;;;;;;;;;;5033587;28;20034;-58
2021/04/15 06:02:32;;;;;;;3.38;1.23;;;;;;;;;;5047542;28;19977;-56
2021/04/15 06:05:00;;;;;;;3.70;1.60;;;;;;;;;;5025392;28;20037;-59
2021/04/15 06:07:26;;;;;;;6.70;1.55;;;;;;;;;;5025190;28;20042;-58
2021/04/15 06:09:56;;;;;;;3.70;1.52;;;;;;;;;;5029348;28;20176;-55
2021/04/15 06:12:30;;;;;;;2.10;1.05;;;;;;;;;;5024885;28;20080;-51
2021/04/15 06:15:00;;;;;;;4.82;1.45;;;;;;;;;;5026890;28;20026;-56
2021/04/15 06:17:29;;;;;;;6.72;1.80;;;;;;;;;;5030015;28;20046;-54
2021/04/15 06:19:58;;;;;;;3.95;1.77;;;;;;;;;;5018827;28;20038;-57
2021/04/15 06:22:25;;;;;;;4.07;1.50;;;;;;;;;;5025493;28;20034;-55
2021/04/15 06:24:54;;;;;;;5.38;1.27;;;;;;;;;;5018127;28;20080;-54
2021/04/15 06:27:21;;;;;;;5.68;1.38;;;;;;;;;;5021535;28;20045;-57
2021/04/15 06:29:53;;;;;;;3.75;1.50;;;;;;;;;;5038431;28;20106;-58
2021/04/15 06:32:22;;;;;;;3.92;1.75;;;;;;;;;;5034178;28;20128;-56
2021/04/15 06:34:51;;;;;;;6.60;1.45;;;;;;;;;;5023348;28;20026;-57
2021/04/15 06:37:18;;;;;;;4.50;1.50;;;;;;;;;;5014469;28;20046;-58
2021/04/15 06:39:47;;;;;;;4.20;1.58;;;;;;;;;;5019748;28;20053;-54
2021/04/15 06:42:23;;;;;;;3.95;1.77;;;;;;;;;;5018538;28;20049;-57
2021/04/15 06:45:19;;;;;;;3.58;1.55;;;;;;;;;;5038490;28;20041;-54
2021/04/15 06:47:59;;;;;;;3.50;1.33;;;;;;;;;;5019408;28;20228;-57
2021/04/15 06:50:30;;;;;;;4.63;1.40;;;;;;;;;;5017676;28;20045;-54
2021/04/15 06:53:01;;;;;;;3.50;1.25;;;;;;;;;;5016445;28;20052;-58
2021/04/15 06:55:36;;;;;;;4.00;1.42;;;;;;;;;;5020816;28;20037;-54
2021/04/15 06:58:20;;;;;;;5.72;1.48;;;;;;;;;;5019004;28;20037;-55
2021/04/15 07:00:55;;;;;;;6.85;2.50;;;;;;;;;;5023518;28;20042;-55
2021/04/15 07:03:34;;;;;;;2.80;1.05;;;;;;;;;;5019658;28;20420;-57
2021/04/15 07:06:06;;;;;;;5.35;1.42;;;;;;;;;;5023211;28;20431;-57
2021/04/15 07:08:46;;;;;;;4.05;1.33;;;;;;;;;;5023931;28;20118;-54
2021/04/15 07:11:22;;;;;;;3.50;1.30;;;;;;;;;;5041195;28;20060;-54
2021/04/15 07:14:06;;;;;;;2.00;1.05;;;;;;;;;;5038707;28;20119;-58
2021/04/15 07:16:54;;;;;;;4.65;1.48;;;;;;;;;;5042110;28;20562;-58
2021/04/15 07:19:44;;;;;;;4.67;1.27;;;;;;;;;;5036217;28;20045;-57
2021/04/15 07:22:24;;;;;;;2.95;1.02;;;;;;;;;;5041471;28;20274;-58
2021/04/15 07:24:56;;;;;;;3.95;1.15;;;;;;;;;;5025628;28;20039;-58
2021/04/15 07:27:41;;;;;;;2.20;0.95;;;;;;;;;;5021279;28;20053;-57
2021/04/15 07:30:26;;;;;;;9.13;1.05;;;;;;;;;;5033740;28;20042;-60
2021/04/15 07:33:17;;;;;;;3.28;1.17;;;;;;;;;;5021988;28;20029;-59
2021/04/15 07:35:54;;;;;;;2.72;0.90;;;;;;;;;;5011511;28;20072;-57
2021/04/15 07:38:35;;;;;;;9.68;1.00;;;;;;;;;;5021400;28;20053;-54
2021/04/15 07:41:19;;;;;;;3.90;0.95;;;;;;;;;;5020127;28;20057;-57
2021/04/15 07:44:03;;;;;;;9.20;1.25;;;;;;;;;;5020447;28;20044;-52
2021/04/15 07:46:32;;;;;;;3.22;0.90;;;;;;;;;;5037978;28;20042;-58
2021/04/15 07:49:11;;;;;;;3.53;0.90;;;;;;;;;;5042141;28;20122;-53
2021/04/15 07:51:58;;;;;;;9.85;1.08;;;;;;;;;;5023191;28;20029;-59
2021/04/15 07:54:32;;;;;;;2.75;1.10;;;;;;;;;;5035034;28;20041;-55
2021/04/15 07:57:13;;;;;;;2.85;1.10;;;;;;;;;;5038316;28;20072;-58
2021/04/15 07:59:48;;;;;;;2.45;0.90;;;;;;;;;;5042632;28;20110;-56
2021/04/15 08:02:33;;;;;;;11.90;1.13;;;;;;;;;;5037471;28;20049;-57
2021/04/15 08:05:13;;;;;;;2.17;0.90;;;;;;;;;;5034994;28;20090;-58
2021/04/15 08:07:56;;;;;;;13.45;1.10;;;;;;;;;;5012473;28;20041;-52
2021/04/15 08:10:39;;;;;;;9.48;0.95;;;;;;;;;;5019802;28;20040;-55
2021/04/15 08:13:21;;;;;;;5.95;0.95;;;;;;;;;;5041978;28;20056;-57
2021/04/15 08:15:56;;;;;;;4.18;1.17;;;;;;;;;;5039328;28;20119;-56
2021/04/15 08:18:25;;;;;;;5.60;1.42;;;;;;;;;;5038632;28;20076;-54
2021/04/15 08:21:00;;;;;;;3.22;1.13;;;;;;;;;;5036930;28;20114;-56
2021/04/15 08:23:32;;;;;;;2.13;0.80;;;;;;;;;;5022296;28;20038;-56
2021/04/15 08:26:12;;;;;;;4.90;1.00;;;;;;;;;;5018677;28;20045;-52
2021/04/15 08:28:47;;;;;;;1.55;0.90;;;;;;;;;;5019575;28;20042;-58
2021/04/15 08:31:18;;;;;;;7.65;2.20;;;;;;;;;;5020836;28;20033;-57
2021/04/15 08:33:59;;;;;;;6.43;1.17;;;;;;;;;;5036266;28;20045;-56
2021/04/15 08:36:52;;;;;;;1.38;0.93;;;;;;;;;;5020807;28;20046;-54
2021/04/15 08:39:27;;;;;;;2.35;0.95;;;;;;;;;;4963303;28;20048;-53
2021/04/15 08:41:58;;;;;;;1.40;0.70;;;;;;;;;;5021106;28;20040;-53
2021/04/15 08:44:48;;;;;;;4.30;1.08;;;;;;;;;;5039477;28;20045;-56
2021/04/15 08:47:24;;;;;;;3.75;0.93;;;;;;;;;;5025135;28;20099;-55
2021/04/15 08:49:55;;;;;;;2.47;0.90;;;;;;;;;;5017667;28;20046;-56
2021/04/15 08:52:26;;;;;;;3.17;0.90;;;;;;;;;;5022226;28;20115;-58
2021/04/15 08:55:10;;;;;;;3.08;0.73;;;;;;;;;;5040156;28;20039;-58
2021/04/15 08:57:42;;;;;;;3.70;0.70;;;;;;;;;;5035092;28;20053;-55
2021/04/15 09:00:16;;;;;;;3.20;0.88;;;;;;;;;;5040617;28;20045;-58
2021/04/15 09:02:48;;;;;;;2.20;0.70;;;;;;;;;;5032635;28;20048;-55
2021/04/15 09:05:18;;;;;;;1.15;0.60;;;;;;;;;;5020125;28;20042;-56
2021/04/15 09:07:51;;;;;;;4.50;0.80;;;;;;;;;;5017673;28;20045;-59
2021/04/15 09:10:21;;;;;;;2.50;0.70;;;;;;;;;;5021922;28;20048;-58
2021/04/15 09:13:02;;;;;;;4.35;0.70;;;;;;;;;;5019711;28;20048;-58
2021/04/15 09:15:31;;;;;;;2.28;0.93;;;;;;;;;;5039335;28;20292;-58
2021/04/15 09:18:00;;;;;;;2.92;0.90;;;;;;;;;;5034970;28;20049;-58
2021/04/15 09:20:32;;;;;;;1.45;0.82;;;;;;;;;;5020658;28;20393;-58
2021/04/15 09:23:22;;;;;;;2.05;0.93;;;;;;;;;;5018322;28;20079;-60
2021/04/15 09:25:54;;;;;;;5.03;0.93;;;;;;;;;;5021184;28;20048;-58
2021/04/15 09:28:25;;;;;;;3.28;0.90;;;;;;;;;;5016227;28;20119;-58
2021/04/15 09:30:59;;;;;;;3.20;0.55;;;;;;;;;;5041259;28;20037;-59
2021/04/15 09:33:41;;;;;;;0.80;0.60;;;;;;;;;;5030079;28;20038;-58
2021/04/15 09:36:11;;;;;;;2.90;0.55;;;;;;;;;;5020464;28;20037;-58
2021/04/15 09:38:51;;;;;;;1.05;0.40;;;;;;;;;;5034165;28;20033;-57
2021/04/15 09:41:27;;;;;;;1.13;0.63;;;;;;;;;;5040563;28;20041;-53
2021/04/15 09:44:07;;;;;;;1.92;0.60;;;;;;;;;;5016126;28;20033;-57
2021/04/15 09:46:42;;;;;;;4.85;1.33;;;;;;;;;;5019212;28;20045;-58
2021/04/15 09:49:17;;;;;;;2.20;0.90;;;;;;;;;;5016150;28;20061;-55
2021/04/15 09:52:02;;;;;;;2.15;0.70;;;;;;;;;;5019813;28;20037;-58
2021/04/15 09:54:35;;;;;;;1.85;0.70;;;;;;;;;;5023775;28;20037;-55
2021/04/15 09:57:05;;;;;;;3.35;0.90;;;;;;;;;;5039705;28;20041;-60
2021/04/15 09:59:49;;;;;;;2.08;0.70;;;;;;;;;;5037386;28;20099;-59
2021/04/15 10:02:21;;;;;;;2.65;0.70;;;;;;;;;;5038623;28;20052;-58
2021/04/15 10:04:51;;;;;;;1.63;0.60;;;;;;;;;;5034393;28;20037;-59
2021/04/15 10:07:20;;;;;;;2.75;0.50;;;;;;;;;;5038038;28;20119;-60
2021/04/15 10:10:02;;;;;;;0.77;0.50;;;;;;;;;;5038025;28;20056;-56
2021/04/15 10:12:34;;;;;;;1.50;0.52;;;;;;;;;;5038231;28;20177;-57
2021/04/15 10:15:12;;;;;;;2.38;0.50;;;;;;;;;;5037084;28;20091;-56
2021/04/15 10:17:45;;;;;;;2.60;0.57;;;;;;;;;;5020623;28;20046;-54
2021/04/15 10:20:29;;;;;;;2.22;0.65;;;;;;;;;;5018701;28;20042;-57
2021/04/15 10:23:03;;;;;;;2.65;0.52;;;;;;;;;;5018292;28;20049;-59
2021/04/15 10:25:30;;;;;;;3.67;0.50;;;;;;;;;;5033582;28;20054;-58
2021/04/15 10:28:03;;;;;;;1.45;0.55;;;;;;;;;;5019660;28;20042;-59
2021/04/15 10:30:44;;;;;;;2.83;0.40;;;;;;;;;;5022839;28;20026;-57
2021/04/15 10:33:24;;;;;;;1.20;0.47;;;;;;;;;;5022249;28;20066;-62
2021/04/15 10:35:59;;;;;;;1.75;0.77;;;;;;;;;;5021136;28;20065;-57
2021/04/15 10:38:44;;;;;;;4.65;0.82;;;;;;;;;;5021960;28;20038;-58
2021/04/15 10:41:27;;;;;;;1.33;0.70;;;;;;;;;;5018612;28;20052;-60
2021/04/15 10:44:20;;;;;;;4.25;0.70;;;;;;;;;;5030314;28;20037;-61
2021/04/15 10:46:56;;;;;;;3.47;0.77;;;;;;;;;;4998883;28;20052;-57
2021/04/15 10:49:31;;;;;;;2.00;0.65;;;;;;;;;;5021005;28;20063;-59
2021/04/15 10:52:00;;;;;;;4.07;0.70;;;;;;;;;;5023457;28;20166;-61
2021/04/15 10:54:28;;;;;;;2.00;0.68;;;;;;;;;;5027422;28;20118;-56
2021/04/15 10:56:55;;;;;;;0.65;0.55;;;;;;;;;;5021121;28;20126;-61
2021/04/15 10:59:39;;;;;;;0.95;0.70;;;;;;;;;;5042043;28;20048;-61
2021/04/15 11:02:15;;;;;;;1.40;0.70;;;;;;;;;;5039413;28;20041;-56
2021/04/15 11:04:41;;;;;;;1.27;0.60;;;;;;;;;;5041254;28;20041;-61
2021/04/15 11:07:09;;;;;;;1.67;0.70;;;;;;;;;;5037002;28;20098;-58
2021/04/15 11:09:36;;;;;;;1.08;0.80;;;;;;;;;;5042204;28;20112;-62
2021/04/15 11:12:04;;;;;;;0.95;0.63;;;;;;;;;;5041170;28;20053;-58
2021/04/15 11:14:35;;;;;;;1.90;0.68;;;;;;;;;;5020840;28;20120;-58
2021/04/15 11:17:06;;;;;;;2.47;0.85;;;;;;;;;;5019943;28;20061;-61
2021/04/15 11:19:32;;;;;;;2.03;0.80;;;;;;;;;;5021027;28;20030;-61
2021/04/15 11:22:11;;;;;;;2.60;0.70;;;;;;;;;;5022332;28;20053;-62
2021/04/15 11:24:41;;;;;;;2.75;0.75;;;;;;;;;;5017664;28;20090;-58
2021/04/15 11:27:08;;;;;;;2.20;0.70;;;;;;;;;;5020397;28;20053;-59
2021/04/15 11:29:39;;;;;;;1.77;1.08;;;;;;;;;;5019168;28;20134;-61
2021/04/15 11:32:21;;;;;;;5.35;1.10;;;;;;;;;;5022399;28;20038;-60
2021/04/15 11:35:00;;;;;;;4.75;1.10;;;;;;;;;;5035100;28;20052;-62
2021/04/15 11:37:25;;;;;;;;;;;;;;;;;;5041099;28;20037;-57
2021/04/15 11:40:12;;;;;;;3.05;0.63;;;;;;;;;;5051089;28;19943;-58
2021/04/15 11:42:38;;;;;;;4.13;0.88;;;;;;;;;;5022197;28;20120;-59
2021/04/15 11:45:05;;;;;;;1.27;0.80;;;;;;;;;;5036088;28;20045;-57
2021/04/15 11:47:32;;;;;;;3.53;0.90;;;;;;;;;;5040585;28;20045;-58
2021/04/15 11:50:08;;;;;;;1.92;0.82;;;;;;;;;;5037999;28;20043;-59
2021/04/15 11:52:35;;;;;;;2.00;0.90;;;;;;;;;;5040861;28;20033;-59
2021/04/15 11:55:07;;;;;;;1.02;0.70;;;;;;;;;;5029163;28;20094;-62
2021/04/15 11:57:36;;;;;;;0.90;0.73;;;;;;;;;;5021630;28;20108;-58
2021/04/15 12:00:13;;;;;;;1.45;0.82;;;;;;;;;;5023405;28;20025;-58
2021/04/15 12:02:42;;;;;;;1.70;0.65;;;;;;;;;;5041681;28;20041;-59
2021/04/15 12:05:07;;;;;;;;;;;;;;;;;;5036693;28;20041;-55
2021/04/15 12:07:34;;;;;;;1.95;1.05;;;;;;;;;;5057388;28;19924;-58
2021/04/15 12:10:00;;;;;;;2.05;0.90;;;;;;;;;;5028109;28;20648;-55
2021/04/15 12:12:30;;;;;;;2.40;1.02;;;;;;;;;;5021371;28;20026;-60
2021/04/15 12:14:56;;;;;;;4.65;1.20;;;;;;;;;;5019549;28;20052;-55
2021/04/15 12:17:28;;;;;;;4.80;1.30;;;;;;;;;;5039427;28;20041;-57
2021/04/15 12:19:56;;;;;;;2.03;1.00;;;;;;;;;;5041854;28;20052;-57
2021/04/15 12:22:30;;;;;;;2.53;1.00;;;;;;;;;;5037762;28;20052;-54
2021/04/15 12:24:59;;;;;;;2.00;1.00;;;;;;;;;;5037271;28;20069;-58
2021/04/15 12:27:26;;;;;;;3.50;1.30;;;;;;;;;;5018239;28;20034;-58
2021/04/15 12:29:56;;;;;;;2.15;0.80;;;;;;;;;;5019719;28;20050;-56
2021/04/15 12:32:27;;;;;;;1.77;0.60;;;;;;;;;;5017309;28;20046;-58
2021/04/15 12:34:58;;;;;;;6.15;0.98;;;;;;;;;;5038850;28;20057;-56
2021/04/15 12:37:26;;;;;;;2.30;1.13;;;;;;;;;;5037079;28;20053;-58
2021/04/15 12:39:55;;;;;;;3.17;1.50;;;;;;;;;;5040379;28;20029;-56
2021/04/15 12:42:23;;;;;;;3.30;1.30;;;;;;;;;;5024754;28;20287;-58
2021/04/15 12:44:49;;;;;;;2.97;0.93;;;;;;;;;;5020953;28;20033;-58
2021/04/15 12:47:17;;;;;;;2.00;1.08;;;;;;;;;;5027836;28;20184;-58
2021/04/15 12:49:43;;;;;;;3.57;0.80;;;;;;;;;;5041001;28;20049;-57
2021/04/15 12:52:12;;;;;;;1.55;0.98;;;;;;;;;;5029580;28;20050;-59
2021/04/15 12:54:40;;;;;;;7.68;1.10;;;;;;;;;;5022328;28;20029;-57
2021/04/15 12:57:08;;;;;;;3.08;1.20;;;;;;;;;;5024644;28;20049;-55
2021/04/15 12:59:35;;;;;;;1.90;1.05;;;;;;;;;;5041574;28;20042;-58
2021/04/15 13:02:02;;;;;;;3.08;1.35;;;;;;;;;;5036981;28;20037;-59
2021/04/15 13:04:41;;;;;;;3.42;1.00;;;;;;;;;;5039520;28;20049;-56
2021/04/15 13:07:09;;;;;;;2.67;1.00;;;;;;;;;;5036765;28;20056;-58
2021/04/15 13:09:37;;;;;;;2.67;1.10;;;;;;;;;;5039494;28;20045;-59
2021/04/15 13:12:23;;;;;;;3.13;1.30;;;;;;;;;;5036889;28;20104;-60
2021/04/15 13:14:50;;;;;;;4.15;1.00;;;;;;;;;;5037076;28;20122;-59
2021/04/15 13:17:31;;;;;;;3.05;1.65;;;;;;;;;;5018782;28;20060;-59
2021/04/15 13:19:58;;;;;;;2.00;0.90;;;;;;;;;;5020618;28;20115;-56
2021/04/15 13:22:28;;;;;;;2.30;1.13;;;;;;;;;;5019374;28;20071;-59
2021/04/15 13:25:18;;;;;;;6.13;1.10;;;;;;;;;;5018557;28;20049;-58
2021/04/15 13:27:58;;;;;;;2.08;1.00;;;;;;;;;;5014794;28;20057;-59
2021/04/15 13:30:27;;;;;;;4.13;1.35;;;;;;;;;;5029128;28;20057;-59
2021/04/15 13:32:58;;;;;;;3.38;1.15;;;;;;;;;;5036603;28;20055;-59
2021/04/15 13:35:35;;;;;;;4.03;0.90;;;;;;;;;;5041093;28;20034;-59
2021/04/15 13:38:01;;;;;;;3.87;1.30;;;;;;;;;;5018129;28;20074;-59
2021/04/15 13:40:30;;;;;;;3.53;1.20;;;;;;;;;;5018394;28;20045;-57
2021/04/15 13:42:56;;;;;;;3.70;1.20;;;;;;;;;;5020510;28;20038;-58
2021/04/15 13:45:46;;;;;;;1.55;0.98;;;;;;;;;;5032877;28;20093;-59
2021/04/15 13:48:31;;;;;;;1.70;0.95;;;;;;;;;;5039281;28;20065;-59
2021/04/15 13:51:16;;;;;;;2.97;1.15;;;;;;;;;;5020784;28;20029;-58
2021/04/15 13:54:00;;;;;;;4.05;1.40;;;;;;;;;;5017966;28;20049;-59
2021/04/15 13:56:32;;;;;;;2.10;0.98;;;;;;;;;;5020277;28;20090;-58
2021/04/15 13:58:59;;;;;;;2.28;1.10;;;;;;;;;;5019552;28;20048;-54
2021/04/15 14:01:29;;;;;;;2.60;0.90;;;;;;;;;;5020650;28;20042;-56
2021/04/15 14:03:55;;;;;;;1.67;0.85;;;;;;;;;;5020781;28;20052;-59
2021/04/15 14:06:22;;;;;;;2.08;1.00;;;;;;;;;;5037811;28;20080;-58
2021/04/15 14:09:01;;;;;;;2.05;1.08;;;;;;;;;;5040153;28;20041;-60
2021/04/15 14:11:27;;;;;;;;;;;;;;;;;;5022030;28;20050;-58
2021/04/15 14:13:55;;;;;;;2.58;1.10;;;;;;;;;;5021895;28;19921;-55
2021/04/15 14:16:21;;;;;;;2.07;1.00;;;;;;;;;;5034248;28;20041;-59
2021/04/15 14:18:47;;;;;;;4.80;1.10;;;;;;;;;;5042680;28;20041;-57
2021/04/15 14:21:20;;;;;;;2.45;1.05;;;;;;;;;;5037680;28;20061;-58
2021/04/15 14:23:47;;;;;;;1.90;1.10;;;;;;;;;;5042774;28;20044;-52
2021/04/15 14:26:15;;;;;;;4.80;1.10;;;;;;;;;;5037868;28;20052;-57
2021/04/15 14:28:42;;;;;;;3.28;1.40;;;;;;;;;;5042223;28;20045;-57
2021/04/15 14:31:13;;;;;;;2.80;1.15;;;;;;;;;;5031841;28;20076;-61
2021/04/15 14:33:39;;;;;;;4.22;1.20;;;;;;;;;;5022168;28;20062;-59
2021/04/15 14:36:05;;;;;;;3.25;1.30;;;;;;;;;;5019892;28;20188;-59
2021/04/15 14:38:32;;;;;;;4.30;1.33;;;;;;;;;;5021809;28;20042;-61
2021/04/15 14:41:00;;;;;;;1.80;1.05;;;;;;;;;;5023132;28;20048;-60
2021/04/15 14:43:30;;;;;;;3.47;1.10;;;;;;;;;;5042305;28;20041;-60
2021/04/15 14:45:56;;;;;;;4.40;1.23;;;;;;;;;;5037324;28;20033;-61
2021/04/15 14:48:29;;;;;;;2.38;1.00;;;;;;;;;;5022723;28;20021;-60
2021/04/15 14:51:09;;;;;;;2.10;1.00;;;;;;;;;;5018661;28;20048;-60
2021/04/15 14:53:35;;;;;;;1.52;1.00;;;;;;;;;;5026564;28;20041;-59
2021/04/15 14:56:09;;;;;;;3.08;1.20;;;;;;;;;;5020089;28;20053;-57
2021/04/15 14:58:36;;;;;;;3.00;1.02;;;;;;;;;;5022369;28;20052;-59
2021/04/15 15:01:04;;;;;;;2.20;1.08;;;;;;;;;;5038522;28;20138;-59
2021/04/15 15:03:32;;;;;;;1.77;0.95;;;;;;;;;;5020109;28;20052;-58
2021/04/15 15:05:58;;;;;;;1.67;0.80;;;;;;;;;;5022223;28;20050;-61
2021/04/15 15:08:26;;;;;;;2.28;1.20;;;;;;;;;;5033629;28;20051;-56
2021/04/15 15:10:55;;;;;;;1.95;0.90;;;;;;;;;;5044049;28;20049;-57
2021/04/15 15:13:21;;;;;;;0.80;0.65;;;;;;;;;;5037118;28;20029;-60